createdAt,value
2023-05-24T00:00:29.541Z,0.20
2023-05-24T00:02:57.661Z,0.30
2023-05-24T00:05:24.809Z,0.40
2023-05-24T00:07:51.902Z,0.10
2023-05-24T00:10:18.972Z,0.10
2023-05-24T00:12:45.961Z,0.20
2023-05-24T00:15:12.996Z,0.32
2023-05-24T00:17:42.716Z,0.20
2023-05-24T00:20:11.847Z,0.40
2023-05-24T00:22:39.190Z,0.40
2023-05-24T00:25:06.643Z,0.10
2023-05-24T00:27:33.657Z,0.10
2023-05-24T00:30:00.674Z,0.10
2023-05-24T00:32:29.919Z,0.17
2023-05-24T00:34:57.123Z,0.10
2023-05-24T00:37:24.147Z,0.08
2023-05-24T00:39:51.173Z,0.20
2023-05-24T00:42:18.141Z,0.20
2023-05-24T00:44:45.157Z,0.10
2023-05-24T00:47:12.137Z,0.10
2023-05-24T00:49:39.237Z,0.10
2023-05-24T00:52:07.085Z,0.10
2023-05-24T00:54:34.083Z,0.10
2023-05-24T00:57:01.844Z,0.10
2023-05-24T00:59:28.847Z,0.15
2023-05-24T01:01:55.907Z,0.10
2023-05-24T01:04:23.084Z,0.10
2023-05-24T01:07:20.829Z,0.40
2023-05-24T01:10:04.897Z,0.30
2023-05-24T01:13:04.010Z,0.10
2023-05-24T01:15:47.054Z,0.17
2023-05-24T01:18:26.080Z,0.13
2023-05-24T01:21:14.441Z,0.20
2023-05-24T01:24:22.720Z,0.00
2023-05-24T01:27:01.858Z,0.10
2023-05-24T01:29:29.733Z,0.10
2023-05-24T01:31:58.757Z,0.10
2023-05-24T01:34:26.355Z,0.45
2023-05-24T01:36:53.461Z,0.10
2023-05-24T01:39:20.731Z,0.00
2023-05-24T01:41:59.830Z,0.10
2023-05-24T01:44:32.213Z,0.10
2023-05-24T01:47:22.147Z,0.00
2023-05-24T01:49:51.474Z,0.15
2023-05-24T01:52:20.090Z,0.25
2023-05-24T01:54:51.683Z,0.20
2023-05-24T01:57:21.732Z,0.10
2023-05-24T01:59:48.764Z,0.05
2023-05-24T02:02:15.921Z,0.10
2023-05-24T02:04:42.966Z,0.30
2023-05-24T02:07:10.037Z,0.10
2023-05-24T02:09:37.936Z,0.00
2023-05-24T02:12:05.923Z,0.10
2023-05-24T02:14:32.827Z,0.10
2023-05-24T02:17:00.763Z,0.25
2023-05-24T02:19:27.837Z,0.20
2023-05-24T02:21:55.034Z,0.95
2023-05-24T02:24:22.128Z,0.10
2023-05-24T02:26:49.152Z,0.13
2023-05-24T02:29:16.537Z,0.03
2023-05-24T02:31:43.536Z,0.08
2023-05-24T02:34:10.556Z,0.10
2023-05-24T02:36:37.639Z,0.10
2023-05-24T02:39:04.786Z,0.20
2023-05-24T02:41:31.880Z,0.10
2023-05-24T02:43:58.798Z,0.08
2023-05-24T02:46:25.825Z,0.30
2023-05-24T02:48:52.832Z,0.30
2023-05-24T02:51:20.032Z,0.50
2023-05-24T02:53:47.776Z,0.13
2023-05-24T02:56:17.884Z,0.10
2023-05-24T02:58:45.066Z,0.40
2023-05-24T03:01:15.416Z,0.10
2023-05-24T03:03:42.570Z,0.20
2023-05-24T03:06:10.224Z,0.10
2023-05-24T03:08:37.491Z,0.17
2023-05-24T03:11:05.457Z,0.10
2023-05-24T03:13:32.423Z,0.43
2023-05-24T03:15:59.626Z,0.10
2023-05-24T03:18:26.647Z,0.00
2023-05-24T03:20:54.613Z,0.10
2023-05-24T03:23:21.707Z,0.08
2023-05-24T03:25:49.314Z,0.10
2023-05-24T03:28:16.307Z,0.17
2023-05-24T03:30:44.521Z,0.10
2023-05-24T03:33:12.039Z,0.30
2023-05-24T03:35:39.196Z,0.10
2023-05-24T03:38:06.469Z,0.28
2023-05-24T03:40:35.031Z,0.10
2023-05-24T03:43:05.172Z,0.05
2023-05-24T03:45:42.187Z,0.10
2023-05-24T03:48:09.282Z,0.10
2023-05-24T03:50:36.430Z,0.30
2023-05-24T03:53:03.660Z,0.20
2023-05-24T03:55:30.745Z,0.08
2023-05-24T03:57:57.818Z,0.30
2023-05-24T04:00:24.751Z,0.20
2023-05-24T04:02:51.868Z,0.20
2023-05-24T04:05:18.861Z,0.10
2023-05-24T04:07:46.455Z,0.10
2023-05-24T04:10:13.668Z,0.28
2023-05-24T04:12:41.348Z,0.17
2023-05-24T04:15:08.908Z,0.20
2023-05-24T04:17:36.052Z,0.10
2023-05-24T04:20:05.381Z,0.10
2023-05-24T04:22:33.032Z,0.10
2023-05-24T04:25:00.342Z,0.13
2023-05-24T04:27:27.447Z,0.10
2023-05-24T04:29:54.407Z,0.30
2023-05-24T04:32:21.472Z,0.10
2023-05-24T04:34:48.437Z,0.20
2023-05-24T04:37:17.420Z,0.10
2023-05-24T04:39:46.359Z,0.20
2023-05-24T04:42:13.595Z,0.20
2023-05-24T04:44:40.867Z,0.10
2023-05-24T04:47:08.824Z,0.45
2023-05-24T04:49:35.801Z,0.32
2023-05-24T04:52:02.954Z,0.20
2023-05-24T04:54:29.954Z,0.10
2023-05-24T04:56:56.925Z,0.40
2023-05-24T04:59:24.295Z,0.28
2023-05-24T05:01:51.346Z,0.70
2023-05-24T05:04:18.320Z,0.30
2023-05-24T05:06:45.337Z,0.20
2023-05-24T05:09:14.706Z,0.50
2023-05-24T05:11:41.925Z,0.22
2023-05-24T05:14:11.645Z,0.30
2023-05-24T05:16:39.097Z,0.30
2023-05-24T05:19:06.306Z,0.85
2023-05-24T05:21:33.511Z,0.45
2023-05-24T05:24:04.125Z,1.25
2023-05-24T05:26:31.226Z,0.60
2023-05-24T05:28:58.233Z,0.50
2023-05-24T05:31:25.671Z,0.60
2023-05-24T05:33:52.641Z,0.40
2023-05-24T05:36:19.837Z,0.30
2023-05-24T05:38:46.817Z,0.40
2023-05-24T05:41:13.753Z,0.80
2023-05-24T05:43:41.016Z,2.30
2023-05-24T05:46:08.204Z,1.20
2023-05-24T05:48:35.449Z,1.10
2023-05-24T05:51:02.416Z,1.02
2023-05-24T05:53:29.470Z,0.85
2023-05-24T05:55:56.572Z,0.70
2023-05-24T05:58:23.545Z,1.00
2023-05-24T06:00:51.043Z,0.75
2023-05-24T06:03:20.608Z,1.23
2023-05-24T06:05:47.726Z,0.77
2023-05-24T06:08:14.620Z,1.00
2023-05-24T06:10:41.826Z,0.73
2023-05-24T06:13:09.059Z,1.35
2023-05-24T06:15:36.004Z,1.23
2023-05-24T06:18:03.043Z,0.47
2023-05-24T06:20:30.196Z,0.70
2023-05-24T06:23:01.407Z,0.85
2023-05-24T06:25:30.773Z,1.17
2023-05-24T06:27:57.904Z,1.33
2023-05-24T06:30:26.431Z,0.82
2023-05-24T06:32:53.524Z,1.10
2023-05-24T06:35:20.530Z,0.80
2023-05-24T06:37:47.594Z,0.63
2023-05-24T06:40:14.764Z,1.15
2023-05-24T06:42:41.773Z,0.98
2023-05-24T06:45:09.407Z,1.27
2023-05-24T06:47:37.230Z,1.20
2023-05-24T06:50:05.246Z,0.95
2023-05-24T06:52:32.248Z,0.88
2023-05-24T06:54:59.289Z,1.02
2023-05-24T06:57:27.030Z,1.45
2023-05-24T06:59:53.978Z,1.00
2023-05-24T07:02:29.511Z,0.77
2023-05-24T07:04:57.167Z,1.15
2023-05-24T07:07:24.284Z,0.65
2023-05-24T07:09:51.825Z,0.93
2023-05-24T07:12:46.063Z,0.77
2023-05-24T07:15:13.235Z,0.57
2023-05-24T07:17:40.576Z,1.15
2023-05-24T07:20:10.605Z,0.68
2023-05-24T07:22:37.733Z,0.60
2023-05-24T07:25:05.519Z,0.85
2023-05-24T07:27:32.533Z,1.00
2023-05-24T07:29:59.467Z,0.88
2023-05-24T07:32:26.899Z,0.50
2023-05-24T07:34:53.991Z,0.47
2023-05-24T07:37:24.032Z,0.60
2023-05-24T07:40:21.584Z,0.95
2023-05-24T07:42:48.619Z,1.00
2023-05-24T07:45:15.779Z,0.60
2023-05-24T07:47:43.008Z,1.10
2023-05-24T07:50:10.597Z,0.47
2023-05-24T07:52:38.776Z,0.70
2023-05-24T07:55:06.592Z,0.93
2023-05-24T07:57:33.797Z,0.68
2023-05-24T08:00:07.195Z,1.00
2023-05-24T08:02:38.990Z,0.80
2023-05-24T08:05:06.772Z,0.40
2023-05-24T08:07:35.195Z,0.47
2023-05-24T08:10:02.540Z,1.40
2023-05-24T08:12:30.418Z,0.90
2023-05-24T08:14:57.575Z,0.93
2023-05-24T08:17:24.912Z,0.60
2023-05-24T08:19:51.938Z,0.43
2023-05-24T08:22:19.602Z,0.60
2023-05-24T08:24:46.627Z,0.95
2023-05-24T08:27:14.742Z,0.93
2023-05-24T08:29:41.935Z,0.50
2023-05-24T08:32:09.865Z,0.88
2023-05-24T08:34:37.644Z,0.57
2023-05-24T08:37:05.168Z,0.60
2023-05-24T08:39:32.170Z,0.30
2023-05-24T08:44:32.372Z,0.40
2023-05-24T08:46:59.524Z,0.35
2023-05-24T08:49:26.490Z,0.68
2023-05-24T08:51:53.506Z,0.60
2023-05-24T08:54:20.495Z,0.70
2023-05-24T08:56:47.476Z,0.47
2023-05-24T08:59:14.586Z,0.93
2023-05-24T09:01:41.893Z,0.50
2023-05-24T09:04:09.118Z,0.85
2023-05-24T09:06:37.044Z,1.08
2023-05-24T09:09:04.171Z,0.80
2023-05-24T09:11:32.053Z,0.43
2023-05-24T09:13:59.063Z,0.45
2023-05-24T09:16:26.232Z,0.88
2023-05-24T09:18:53.323Z,0.55
2023-05-24T09:21:20.313Z,1.08
2023-05-24T09:23:47.227Z,0.32
2023-05-24T09:26:14.296Z,0.88
2023-05-24T09:28:42.144Z,0.70
2023-05-24T09:31:09.159Z,0.75
2023-05-24T09:33:36.196Z,0.43
2023-05-24T09:36:04.787Z,0.60
2023-05-24T09:38:31.754Z,0.43
2023-05-24T09:41:03.243Z,0.30
2023-05-24T09:43:31.726Z,0.68
2023-05-24T09:46:00.104Z,0.30
2023-05-24T09:48:27.462Z,0.47
2023-05-24T09:51:10.186Z,0.52
2023-05-24T09:53:37.453Z,0.50
2023-05-24T09:56:05.429Z,0.35
2023-05-24T09:58:33.556Z,0.68
2023-05-24T10:01:08.705Z,0.20
2023-05-24T10:03:37.849Z,0.60
2023-05-24T10:06:07.787Z,0.57
2023-05-24T10:08:36.161Z,0.80
2023-05-24T10:11:06.249Z,0.65
2023-05-24T10:13:36.538Z,0.70
2023-05-24T10:16:04.033Z,0.70
2023-05-24T10:18:31.301Z,0.75
2023-05-24T10:20:58.599Z,0.25
2023-05-24T10:23:29.841Z,0.52
2023-05-24T10:26:03.975Z,0.30
2023-05-24T10:28:31.022Z,0.50
2023-05-24T10:31:08.387Z,0.60
2023-05-24T10:33:37.432Z,0.55
2023-05-24T10:36:09.766Z,0.52
2023-05-24T10:38:40.709Z,0.75
2023-05-24T10:41:08.703Z,0.65
2023-05-24T10:43:36.623Z,0.73
2023-05-24T10:46:04.804Z,0.80
2023-05-24T10:48:32.718Z,0.30
2023-05-24T10:51:01.922Z,0.20
2023-05-24T10:53:29.219Z,0.60
2023-05-24T10:55:58.022Z,0.63
2023-05-24T10:58:43.721Z,0.60
2023-05-24T11:01:30.301Z,0.45
2023-05-24T11:04:16.896Z,0.65
2023-05-24T11:06:50.001Z,0.20
2023-05-24T11:09:17.464Z,0.50
2023-05-24T11:11:45.641Z,0.30
2023-05-24T11:14:13.589Z,0.20
2023-05-24T11:16:45.086Z,0.40
2023-05-24T11:19:13.883Z,0.47
2023-05-24T11:21:47.701Z,0.55
2023-05-24T11:24:16.653Z,0.43
2023-05-24T11:26:44.142Z,0.43
2023-05-24T11:29:13.783Z,0.30
2023-05-24T11:31:44.084Z,0.30
2023-05-24T11:34:11.873Z,0.30
2023-05-24T11:36:39.710Z,0.28
2023-05-24T11:39:10.004Z,0.30
2023-05-24T11:41:38.325Z,0.20
2023-05-24T11:44:09.040Z,0.40
2023-05-24T11:46:36.695Z,0.30
2023-05-24T11:49:04.488Z,0.35
2023-05-24T11:51:33.420Z,0.55
2023-05-24T11:54:00.482Z,0.40
2023-05-24T11:56:30.952Z,0.57
2023-05-24T11:59:10.187Z,0.50
2023-05-24T12:01:38.172Z,0.40
2023-05-24T12:04:31.267Z,0.30
2023-05-24T12:06:58.475Z,0.38
2023-05-24T12:09:25.435Z,0.30
2023-05-24T12:11:52.815Z,0.82
2023-05-24T12:14:24.311Z,1.02
2023-05-24T12:16:51.311Z,0.38
2023-05-24T12:21:56.002Z,0.38
2023-05-24T12:24:23.872Z,0.32
2023-05-24T12:26:51.295Z,0.45
2023-05-24T12:29:19.276Z,0.40
2023-05-24T12:31:52.276Z,0.82
2023-05-24T12:34:24.576Z,0.50
2023-05-24T12:36:51.663Z,0.35
2023-05-24T12:39:31.065Z,0.40
2023-05-24T12:41:58.841Z,0.90
2023-05-24T12:44:27.795Z,0.43
2023-05-24T12:46:56.309Z,0.80
2023-05-24T12:49:27.904Z,0.57
2023-05-24T12:51:55.474Z,0.30
2023-05-24T12:54:26.762Z,0.47
2023-05-24T12:56:56.742Z,1.20
2023-05-24T12:59:25.903Z,0.40
2023-05-24T13:01:53.259Z,0.50
2023-05-24T13:04:22.020Z,1.00
2023-05-24T13:06:49.044Z,0.40
2023-05-24T13:09:18.927Z,0.30
2023-05-24T13:11:46.715Z,0.60
2023-05-24T13:14:15.475Z,0.73
2023-05-24T13:16:42.712Z,0.80
2023-05-24T13:19:10.324Z,0.68
2023-05-24T13:21:38.110Z,0.35
2023-05-24T13:24:06.546Z,0.50
2023-05-24T13:26:37.912Z,0.32
2023-05-24T13:31:38.273Z,0.20
2023-05-24T13:34:05.961Z,0.40
2023-05-24T13:36:33.488Z,0.50
2023-05-24T13:41:30.910Z,0.90
2023-05-24T13:43:58.045Z,0.50
2023-05-24T13:46:25.125Z,0.50
2023-05-24T13:48:52.358Z,0.40
2023-05-24T13:51:19.979Z,0.28
2023-05-24T13:53:48.100Z,0.50
2023-05-24T13:56:15.913Z,0.40
2023-05-24T13:58:43.084Z,0.65
2023-05-24T14:01:10.457Z,0.40
2023-05-24T14:03:39.682Z,0.50
2023-05-24T14:06:08.057Z,0.20
2023-05-24T14:08:35.312Z,0.30
2023-05-24T14:11:02.302Z,0.63
2023-05-24T14:15:59.478Z,0.30
2023-05-24T14:18:26.806Z,0.38
2023-05-24T14:20:53.836Z,0.38
2023-05-24T14:23:21.216Z,1.05
2023-05-24T14:25:48.314Z,0.30
2023-05-24T14:28:15.318Z,0.50
2023-05-24T14:30:42.412Z,0.30
2023-05-24T14:33:11.557Z,0.60
2023-05-24T14:35:39.933Z,0.47
2023-05-24T14:38:07.711Z,0.40
2023-05-24T14:40:36.876Z,0.32
2023-05-24T14:43:04.790Z,0.30
2023-05-24T14:45:32.033Z,0.63
2023-05-24T14:47:59.257Z,0.40
2023-05-24T14:50:26.566Z,0.30
2023-05-24T14:52:55.295Z,0.20
2023-05-24T14:55:22.789Z,0.43
2023-05-24T14:57:50.043Z,0.57
2023-05-24T15:00:20.614Z,0.45
2023-05-24T15:02:49.453Z,0.40
2023-05-24T15:05:16.769Z,0.50
2023-05-24T15:07:45.098Z,0.40
2023-05-24T15:10:12.285Z,0.20
2023-05-24T15:12:39.221Z,0.57
2023-05-24T15:15:07.786Z,0.60
2023-05-24T15:17:34.941Z,0.82
2023-05-24T15:20:02.150Z,0.80
2023-05-24T15:22:29.330Z,0.40
2023-05-24T15:25:00.269Z,0.77
2023-05-24T15:27:27.905Z,0.38
2023-05-24T15:29:58.917Z,0.80
2023-05-24T15:32:26.344Z,0.60
2023-05-24T15:34:53.310Z,0.65
2023-05-24T15:37:21.881Z,0.43
2023-05-24T15:39:52.864Z,0.43
2023-05-24T15:42:21.520Z,0.75
2023-05-24T15:44:48.687Z,0.40
2023-05-24T15:47:15.966Z,0.57
2023-05-24T15:49:42.956Z,0.43
2023-05-24T15:52:10.680Z,0.50
2023-05-24T15:54:38.066Z,0.75
2023-05-24T15:57:05.469Z,0.63
2023-05-24T15:59:35.252Z,0.35
2023-05-24T16:02:02.419Z,0.77
2023-05-24T16:04:29.604Z,0.52
2023-05-24T16:06:58.669Z,0.45
2023-05-24T16:09:25.726Z,0.40
2023-05-24T16:11:52.750Z,0.68
2023-05-24T16:14:19.842Z,0.40
2023-05-24T16:16:47.088Z,0.30
2023-05-24T16:19:14.484Z,0.30
2023-05-24T16:21:41.577Z,0.57
2023-05-24T16:24:09.210Z,0.40
2023-05-24T16:26:36.404Z,0.38
2023-05-24T16:29:03.565Z,1.48
2023-05-24T16:31:34.676Z,1.00
2023-05-24T16:34:03.103Z,0.30
2023-05-24T16:36:30.130Z,0.30
2023-05-24T16:38:57.182Z,0.40
2023-05-24T16:41:24.267Z,0.55
2023-05-24T16:43:51.301Z,0.40
2023-05-24T16:46:19.050Z,0.88
2023-05-24T16:48:46.296Z,0.30
2023-05-24T16:51:13.400Z,0.80
2023-05-24T16:53:40.459Z,0.40
2023-05-24T16:56:07.399Z,0.40
2023-05-24T16:58:34.556Z,0.55
2023-05-24T17:01:01.746Z,0.40
2023-05-24T17:03:29.566Z,0.22
2023-05-24T17:05:59.469Z,0.57
2023-05-24T17:08:28.226Z,0.68
2023-05-24T17:10:58.948Z,0.50
2023-05-24T17:13:29.193Z,0.52
2023-05-24T17:15:56.535Z,0.70
2023-05-24T17:18:30.462Z,0.35
2023-05-24T17:20:58.271Z,0.50
2023-05-24T17:23:26.168Z,0.30
2023-05-24T17:25:53.855Z,0.68
2023-05-24T17:28:21.125Z,0.45
2023-05-24T17:30:48.530Z,0.47
2023-05-24T17:33:16.167Z,0.50
2023-05-24T17:35:43.309Z,0.52
2023-05-24T17:38:10.596Z,0.40
2023-05-24T17:40:37.487Z,0.50
2023-05-24T17:43:04.518Z,0.93
2023-05-24T17:45:31.585Z,0.45
2023-05-24T17:47:58.692Z,0.30
2023-05-24T17:50:25.879Z,0.40
2023-05-24T17:52:52.907Z,0.40
2023-05-24T17:55:19.904Z,0.65
2023-05-24T17:57:47.654Z,0.52
2023-05-24T18:00:15.096Z,0.65
2023-05-24T18:02:47.472Z,0.57
2023-05-24T18:05:16.380Z,0.30
2023-05-24T18:07:43.345Z,0.80
2023-05-24T18:10:12.739Z,0.60
2023-05-24T18:12:40.003Z,0.43
2023-05-24T18:15:07.426Z,0.50
2023-05-24T18:17:34.973Z,0.68
2023-05-24T18:20:02.074Z,0.40
2023-05-24T18:22:29.320Z,0.70
2023-05-24T18:24:56.382Z,0.28
2023-05-24T18:27:23.466Z,0.30
2023-05-24T18:29:50.466Z,0.68
2023-05-24T18:32:17.452Z,0.40
2023-05-24T18:34:44.489Z,0.47
2023-05-24T18:37:11.496Z,0.40
2023-05-24T18:39:38.503Z,0.50
2023-05-24T18:42:05.946Z,0.43
2023-05-24T18:44:32.996Z,0.75
2023-05-24T18:47:00.138Z,0.50
2023-05-24T18:49:27.429Z,0.47
2023-05-24T18:51:54.359Z,0.50
2023-05-24T18:54:21.373Z,1.63
2023-05-24T18:57:19.466Z,0.70
2023-05-24T18:59:46.482Z,0.85
2023-05-24T19:02:13.734Z,0.65
2023-05-24T19:04:40.843Z,0.50
2023-05-24T19:07:08.998Z,0.35
2023-05-24T19:09:36.617Z,0.32
2023-05-24T19:12:04.648Z,0.77
2023-05-24T19:14:32.386Z,0.38
2023-05-24T19:17:00.479Z,0.95
2023-05-24T19:19:27.563Z,0.47
2023-05-24T19:21:54.497Z,0.50
2023-05-24T19:24:24.191Z,0.75
2023-05-24T19:26:51.323Z,0.80
2023-05-24T19:29:18.511Z,0.95
2023-05-24T19:31:50.765Z,0.73
2023-05-24T19:34:18.769Z,0.85
2023-05-24T19:36:45.830Z,0.98
2023-05-24T19:39:12.910Z,1.20
2023-05-24T19:41:39.979Z,1.02
2023-05-24T19:44:07.057Z,0.52
2023-05-24T19:46:34.017Z,0.82
2023-05-24T19:49:01.198Z,1.13
2023-05-24T19:51:28.608Z,0.65
2023-05-24T19:53:55.696Z,1.27
2023-05-24T19:56:23.599Z,1.50
2023-05-24T19:58:50.827Z,1.85
2023-05-24T20:01:18.075Z,2.67
2023-05-24T20:03:48.413Z,1.40
2023-05-24T20:06:17.958Z,1.50
2023-05-24T20:08:45.528Z,0.93
2023-05-24T20:11:14.200Z,2.15
2023-05-24T20:13:41.308Z,1.63
2023-05-24T20:16:08.276Z,0.73
2023-05-24T20:18:35.485Z,1.13
2023-05-24T20:21:02.891Z,1.55
2023-05-24T20:23:30.841Z,1.08
2023-05-24T20:25:57.945Z,1.02
2023-05-24T20:28:30.730Z,0.73
2023-05-24T20:30:59.160Z,1.20
2023-05-24T20:33:26.185Z,1.08
2023-05-24T20:35:54.094Z,1.95
2023-05-24T20:38:22.212Z,0.80
2023-05-24T20:40:49.495Z,2.30
2023-05-24T20:43:17.297Z,5.28
2023-05-24T20:45:44.986Z,7.10
2023-05-24T20:48:12.514Z,4.65
2023-05-24T20:50:39.949Z,1.42
2023-05-24T20:53:07.311Z,7.95
2023-05-24T20:55:38.409Z,6.10
2023-05-24T20:58:05.772Z,2.95
2023-05-24T21:00:32.810Z,6.43
2023-05-24T21:03:00.123Z,2.28
2023-05-24T21:05:27.400Z,6.53
2023-05-24T21:07:54.642Z,9.15
2023-05-24T21:10:21.796Z,13.73
2023-05-24T21:12:49.306Z,9.85
2023-05-24T21:15:16.711Z,10.55
2023-05-24T21:17:43.794Z,7.35
2023-05-24T21:20:11.424Z,8.57
2023-05-24T21:22:38.522Z,10.75
2023-05-24T21:25:06.123Z,6.15
2023-05-24T21:27:33.270Z,6.95
2023-05-24T21:30:00.312Z,6.25
2023-05-24T21:32:27.538Z,9.52
2023-05-24T21:34:54.951Z,7.28
2023-05-24T21:37:25.585Z,4.00
2023-05-24T21:40:00.492Z,3.20
2023-05-24T21:42:29.184Z,6.75
2023-05-24T21:44:56.249Z,6.38
2023-05-24T21:47:23.517Z,5.68
2023-05-24T21:49:51.010Z,2.85
2023-05-24T21:52:18.068Z,2.78
2023-05-24T21:54:45.210Z,1.63
2023-05-24T21:57:12.477Z,1.92
2023-05-24T21:59:39.609Z,3.85
2023-05-24T22:02:06.722Z,1.92
2023-05-24T22:04:34.678Z,1.50
2023-05-24T22:07:05.753Z,1.42
2023-05-24T22:09:33.251Z,1.33
2023-05-24T22:12:00.742Z,1.10
2023-05-24T22:14:27.827Z,1.00
2023-05-24T22:16:54.863Z,2.10
2023-05-24T22:19:32.020Z,4.60
2023-05-24T22:22:05.900Z,3.53
2023-05-24T22:24:32.861Z,3.70
2023-05-24T22:27:01.396Z,3.38
2023-05-24T22:29:28.553Z,2.80
2023-05-24T22:31:55.716Z,6.25
2023-05-24T22:34:29.195Z,3.25
2023-05-24T22:36:57.503Z,7.88
2023-05-24T22:39:24.850Z,5.85
2023-05-24T22:41:52.549Z,4.78
2023-05-24T22:44:19.770Z,2.85
2023-05-24T22:46:50.077Z,2.90
2023-05-24T22:49:19.893Z,3.50
2023-05-24T22:51:48.270Z,2.35
2023-05-24T22:54:15.708Z,4.47
2023-05-24T22:56:43.312Z,6.13
2023-05-24T22:59:10.791Z,5.30
2023-05-24T23:01:37.859Z,5.18
2023-05-24T23:04:19.731Z,4.78
2023-05-24T23:06:48.833Z,3.33
2023-05-24T23:09:17.565Z,4.68
2023-05-24T23:11:46.096Z,2.95
2023-05-24T23:14:14.178Z,2.63
2023-05-24T23:16:45.218Z,2.17
2023-05-24T23:19:18.597Z,1.80
2023-05-24T23:21:46.066Z,2.25
2023-05-24T23:24:15.721Z,1.73
2023-05-24T23:26:42.949Z,1.50
2023-05-24T23:29:10.063Z,1.52
2023-05-24T23:31:37.150Z,1.88
2023-05-24T23:34:04.484Z,5.60
2023-05-24T23:36:31.411Z,10.32
2023-05-24T23:38:58.407Z,7.40
2023-05-24T23:41:26.368Z,3.65
2023-05-24T23:43:53.441Z,2.58
2023-05-24T23:46:20.578Z,2.55
2023-05-24T23:48:47.826Z,11.65
2023-05-24T23:51:14.815Z,12.85
2023-05-24T23:53:41.809Z,10.48
2023-05-24T23:56:08.737Z,5.50
2023-05-24T23:58:37.636Z,7.32
